This demonstration page uses our WeatherBlox Daily Observations layout. Learn more.

Left ArrowRight Arrow

Hourly Observations for April 6, 2020

Temp ( °F °C ) Dew Point ( °F °C ) Humidity (%) Winds ( mph kmh ) Pressure ( in mb ) Visibility ( mi km ) Precip ( " mm )
12:51 am 00:51 Clear 60 15.6 25 -3.9 26 26 NW 9 15 29.79 1009 10 16.0934 0 0
1:51 am 01:51 Clear 59 15 25 -3.9 27 27 NW 7 11 29.79 1009 10 16.0934 0 0
2:51 am 02:51 Clear 57 13.9 26 -3.3 30 30 SW 6 9 29.8 1009 10 16.0934 0 0
3:51 am 03:51 Clear 50 10 26 -3.3 39 39 ENE 3 6 29.8 1009 10 16.0934 0 0
4:51 am 04:51 Clear 47 8.3 27 -2.8 46 46 ENE 6 9 29.81 1009 10 16.0934 0 0
5:51 am 05:51 Clear 45 7.2 27 -2.8 49 49 SE 3 6 29.84 1010 10 16.0934 0 0
6:51 am 06:51 Sunny 53 11.7 29 -1.7 40 40 ESE 6 9 29.85 1011 10 16.0934 0 0
8:51 am 08:51 Sunny 64 17.8 30 -1.1 28 28 WNW 6 9 29.89 1012 10 16.0934 0 0
9:51 am 09:51 Sunny 69 20.6 30 -1.1 23 23 NE 3 6 29.88 1012 10 16.0934 0 0
10:51 am 10:51 Sunny 72 22.2 28 -2.2 19 19 W 3 6 29.87 1012 10 16.0934 0 0
11:51 am 11:51 Sunny 74 23.3 23 -5 15 15 Calm 29.85 1011 10 16.0934 0 0
12:51 pm 12:51 Sunny 77 25 20 -6.7 12 12 VRB 5 7 29.83 1010 10 16.0934 0 0
1:51 pm 13:51 Sunny 78 25.6 18 -7.8 10 10 VRB 3 6 29.8 1009 10 16.0934 0 0
2:51 pm 14:51 Sunny 80 26.7 18 -7.8 10 10 W 9 15 29.78 1009 10 16.0934 0 0
3:51 pm 15:51 Sunny 79 26.1 19 -7.2 10 10 SW 5 7 29.8 1009 10 16.0934 0 0
4:51 pm 16:51 Sunny 78 25.6 18 -7.8 10 10 Calm 29.79 1009 10 16.0934 0 0
5:51 pm 17:51 Sunny 78 25.6 18 -7.8 10 10 NW 8 13 29.8 1009 10 16.0934 0 0
6:51 pm 18:51 Clear 73 22.8 17 -8.3 12 12 W 9 15 29.82 1010 10 16.0934 0 0
7:51 pm 19:51 Clear 65 18.3 19 -7.2 17 17 NNW 8 13 29.85 1011 10 16.0934 0 0
8:51 pm 20:51 Clear 65 18.3 19 -7.2 17 17 NNW 12 19 29.88 1012 10 16.0934 0 0
9:51 pm 21:51 Clear 64 17.8 18 -7.8 17 17 NNW 8 13 29.89 1012 10 16.0934 0 0
10:51 pm 22:51 Clear 68 20 18 -7.8 15 15 VRB 7 11 29.91 1013 10 16.0934 0 0
11:51 pm 23:51 Clear 65 18.3 23 -5 20 20 NNW 12 19 29.92 1013 10 16.0934 0 0

Powered by AerisWeather